Bryce, UT

10:32 PM MDT on June 02, 2015 (GMT -0600)
Bryce Canyon | | Change Station
CLOSE
Current Station
Airport
Location: Bryce Canyon,
Elevation: 7585 ft
Nearby Weather Stations

Elev 7585 ft 37.71 °N, 112.15 °W | Updated 39 minutes ago

Clear
Clear
45 °F
Feels Like 42 °F
N
6
Wind Variable Wind from WSW

Today
High -- | Low -- °F
--% Chance of Precip.
Yesterday
High -- | Low -- °F
Precip. -- in
6:08 AM 8:45 PM
Full, 100% visible
Pressure 29.85 in
Visibility 10.0 miles
Clouds Clear
Windchill 42 °F
Dew Point 27 °F
Humidity 49%
Rainfall 0.00 in
Snow Depth Not available.
UV 0 out of 12
Pollen 6.40 out of 12
Air Quality Not available.
Flu Activity Sporadic
METAR KBCE 030353Z AUTO 24005KT 10SM CLR 07/M03 A3014 RMK AO2 SLP108 T00721028

More Conditions Fewer Conditions

Pressure 29.85 in
Visibility 10.0 miles
Clouds Clear
Windchill 42 °F
Dew Point 27 °F
Humidity 49%
Rainfall 0.00 in
Snow Depth Not available.
UV 0 out of 12
Pollen 6.40 out of 12
Air Quality Not available.
Flu Activity Sporadic
METAR KBCE 030353Z AUTO 24005KT 10SM CLR 07/M03 A3014 RMK AO2 SLP108 T00721028

More Conditions Fewer Conditions

10-Day Weather Forecast

×

Almanac

Astronomy

Jun. 02, 2015 Rise Set
Actual Time
Civil Twilight
Nautical Twilight
Astronomical Twilight
Moon
Length of Visible Light
Length of Day
Tomorrow will be .
, % of the Moon is Illuminated

Today's Extremes

State Highs State Lows

Community

WunderPhotos

Upload Photos

1,826,164 photos uploaded!

WunderBlogs® & News

Nearby

Air Quality

  Air Quality AQ Index Pollutant
Not available.

Snow Depth

Station Depth Elevation

Earthquake Activity

City Distance Mag. Time & Date
Minimum magnitude displayed is 2.5.

Coastal Water Temperatures

Place Temperature

Stations

Nearby Weather Stations

Station Location Temp. Windchill Dew Point Humidity Wind Precip. Elev Updated Type